Aviation Digital Data Service (ADDS)

Output produced by METARs form (1518 UTC 17 October 2021)
found at http://aviationweather.gov/metar/data/
 
METAR text: EDDH 171450Z 23004KT 9999 -RA FEW008 SCT016 OVC044 11/09 Q1018 NOSIG
Conditions at: EDDH (HAMBURG/FUHLSBUT, DE) observed 1450 UTC 17 October 2021
Temperature: 11.0°C (52°F)
Dewpoint: 9.0°C (48°F) [RH = 87%]
Pressure (altimeter): 30.06 inches Hg (1018.0 mb)
Winds: from the SW (230 degrees) at 5 MPH (4 knots; 2.1 m/s)
Visibility: 6 or more miles (10+ km)
Ceiling: 4400 feet AGL
Clouds: few clouds at 800 feet AGL
scattered clouds at 1600 feet AGL
overcast cloud deck at 4400 feet AGL
Weather: -RA  (light rain)

METAR text: EDDH 171420Z 25006KT 9999 -RA FEW012 BKN016 OVC048 11/09 Q1018 NOSIG
Conditions at: EDDH (HAMBURG/FUHLSBUT, DE) observed 1420 UTC 17 October 2021
Temperature: 11.0°C (52°F)
Dewpoint: 9.0°C (48°F) [RH = 87%]
Pressure (altimeter): 30.06 inches Hg (1018.0 mb)
Winds: from the WSW (250 degrees) at 7 MPH (6 knots; 3.1 m/s)
Visibility: 6 or more miles (10+ km)
Ceiling: 1600 feet AGL
Clouds: few clouds at 1200 feet AGL
broken clouds at 1600 feet AGL
overcast cloud deck at 4800 feet AGL
Weather: -RA  (light rain)

Forecast for: EDDH (HAMBURG/FUHLSBUT, DE)
Text: TAF EDDH 171100Z 1712/1818 23008KT 9999 SCT012 BKN025
Forecast period: 1200 UTC 17 October 2021 to 1500 UTC 18 October 2021
Forecast type: FROM: standard forecast or significant change
Winds: from the SW (230 degrees) at 9 MPH (8 knots; 4.1 m/s)
Visibility: 6 or more miles (10+ km)
Ceiling: 2500 feet AGL
Clouds: scattered clouds at 1200 feet AGL
broken clouds at 2500 feet AGL
Weather: no significant weather forecast for this period
Text: PROB30
Forecast period: 1200 UTC 17 October 2021 to 0000 UTC 18 October 2021
Forecast type: TEMPORARY: The following changes expected for less than half the time period
Visibility: 2.49 miles (4.01 km)
Ceiling: 1400 feet AGL
Clouds: scattered clouds at 800 feet AGL
broken clouds at 1400 feet AGL
Weather: -RA -DZ  (light rain, light drizzle)
Text: TEMPO 1712/1724 4000 -RADZ SCT008 BKN014
Forecast period: 1500 to 1800 UTC 18 October 2021
Forecast type: BECOMING: Conditions expected to become as follows by 1800 UTC 18 October 2021
Winds: from the S (170 degrees) at 5 MPH (4 knots; 2.1 m/s)
Visibility: 6 or more miles (10+ km)
Ceiling: 2500 feet AGL
Clouds: scattered clouds at 1200 feet AGL
broken clouds at 2500 feet AGL
Weather: no significant weather forecast for this period